nws-alerts: Checking more than four warning/county codes can delay the loading of your pages. You should use a cron job to get the data.
EllijayWeather Historical Data
 
Daily Summary for June 06, 2020 Units:  English    Metric   Both
Daily Weekly Monthly Yearly
  Current: High: Low: Average:
Temperature: 69.3 °F 70.7 °F 68.7 °F 69.6 °F
Dew Point: 68.7 °F 70.2 °F 68.2 °F 69 °F
Humidity: 98% 98% 97% 98%
Wind Speed: 0mph 0mph 0mph 0mph
Wind Gust: 0mph 1mph - -
WindCalm - -
Pressure: 30.0 in 30.0 in 30.0 in -
Precipitation: 0.000 in      
 
 
Tabular Data for June 06, 2020
Time Temperature Dew Point Pressure Wind Wind Speed Wind Gust Humidity Rainfall Rate (Hourly)
00:04 70.5 °F 69.6 °F 30.0 in Calm     97% 0.000 in
00:09 70.3 °F 69.4 °F 30.0 in Calm     97% 0.000 in
00:14 70.3 °F 69.4 °F 30.0 in Calm     97% 0.000 in
00:19 70.3 °F 69.4 °F 30.0 in Calm     97% 0.000 in
00:24 70.3 °F 69.4 °F 30.0 in Calm     97% 0.000 in
00:29 70.5 °F 69.6 °F 30.0 in Calm     97% 0.000 in
00:34 70.5 °F 69.6 °F 30.0 in Calm     97% 0.000 in
00:39 70.5 °F 70.0 °F 30.0 in Calm     98% 0.000 in
00:44 70.7 °F 70.2 °F 30.0 in Calm     98% 0.000 in
00:49 70.7 °F 69.8 °F 30.0 in Calm     97% 0.000 in
00:54 70.7 °F 69.8 °F 30.0 in Calm     97% 0.000 in
00:59 70.5 °F 69.6 °F 30.0 in Calm     97% 0.000 in
01:04 70.5 °F 69.6 °F 30.0 in Calm     97% 0.000 in
01:09 70.5 °F 69.6 °F 30.0 in Calm     97% 0.000 in
01:14 70.3 °F 69.4 °F 30.0 in Calm     97% 0.000 in
01:19 70.3 °F 69.4 °F 30.0 in Calm     97% 0.000 in
01:24 70.3 °F 69.4 °F 30.0 in Calm     97% 0.000 in
01:29 70.3 °F 69.4 °F 30.0 in Calm     97% 0.000 in
01:34 70.3 °F 69.4 °F 30.0 in Calm     97% 0.000 in
01:39 70.3 °F 69.4 °F 30.0 in Calm     97% 0.000 in
01:44 70.3 °F 69.4 °F 30.0 in Calm     97% 0.000 in
01:49 70.3 °F 69.4 °F 30.0 in Calm     97% 0.000 in
01:54 70.2 °F 69.3 °F 30.0 in Calm     97% 0.000 in
01:59 70.2 °F 69.3 °F 30.0 in Calm     97% 0.000 in
02:04 70.2 °F 69.3 °F 30.0 in Calm     97% 0.000 in
02:09 70.2 °F 69.3 °F 30.0 in Calm     97% 0.000 in
02:14 70.0 °F 69.1 °F 30.0 in Calm     97% 0.000 in
02:19 70.0 °F 69.1 °F 30.0 in Calm     97% 0.000 in
02:24 69.8 °F 68.9 °F 30.0 in Calm     97% 0.000 in
02:29 69.6 °F 68.7 °F 30.0 in Calm     97% 0.000 in
02:34 69.6 °F 68.7 °F 30.0 in Calm     97% 0.000 in
02:39 69.6 °F 68.7 °F 30.0 in Calm     97% 0.000 in
02:44 69.6 °F 68.7 °F 30.0 in Calm     97% 0.000 in
02:49 69.6 °F 68.7 °F 30.0 in Calm     97% 0.000 in
02:54 69.4 °F 68.5 °F 30.0 in Calm     97% 0.000 in
02:59 69.4 °F 68.5 °F 30.0 in Calm     97% 0.000 in
03:04 69.4 °F 68.5 °F 30.0 in Calm     97% 0.000 in
03:09 69.4 °F 68.5 °F 30.0 in Calm     97% 0.000 in
03:14 69.4 °F 68.9 °F 30.0 in Calm     98% 0.000 in
03:19 69.4 °F 68.9 °F 30.0 in Calm     98% 0.000 in
03:24 69.4 °F 68.9 °F 30.0 in Calm     98% 0.000 in
03:29 69.4 °F 68.9 °F 30.0 in Calm     98% 0.000 in
03:34 69.4 °F 68.9 °F 30.0 in Calm     98% 0.000 in
03:39 69.4 °F 68.9 °F 30.0 in Calm     98% 0.000 in
03:44 69.4 °F 68.9 °F 30.0 in Calm     98% 0.000 in
03:49 69.4 °F 68.9 °F 30.0 in Calm     98% 0.000 in
03:54 69.4 °F 68.9 °F 30.0 in Calm     98% 0.000 in
03:59 69.4 °F 68.9 °F 30.0 in Calm     98% 0.000 in
04:04 69.4 °F 68.9 °F 30.0 in Calm     98% 0.000 in
04:09 69.4 °F 68.9 °F 30.0 in Calm     98% 0.000 in
04:14 69.6 °F 69.1 °F 30.0 in Calm     98% 0.000 in
04:19 69.6 °F 69.1 °F 30.0 in Calm     98% 0.000 in
04:24 69.6 °F 69.1 °F 30.0 in Calm     98% 0.000 in
04:29 69.6 °F 69.1 °F 30.0 in Calm     98% 0.000 in
04:34 69.6 °F 69.1 °F 30.0 in Calm     98% 0.000 in
04:39 69.6 °F 69.1 °F 30.0 in Calm     98% 0.000 in
04:44 69.6 °F 69.1 °F 30.0 in Calm     98% 0.000 in
04:49 69.6 °F 69.1 °F 30.0 in Calm     98% 0.000 in
04:54 69.6 °F 69.1 °F 30.0 in Calm     98% 0.000 in
04:59 69.6 °F 69.1 °F 30.0 in Calm     98% 0.000 in
05:04 69.6 °F 69.1 °F 30.0 in Calm     98% 0.000 in
05:09 69.6 °F 69.1 °F 30.0 in Calm     98% 0.000 in
05:14 69.6 °F 69.1 °F 30.0 in Calm     98% 0.000 in
05:19 69.6 °F 69.1 °F 30.0 in Calm     98% 0.000 in
05:24 69.6 °F 69.1 °F 30.0 in Calm     98% 0.000 in
05:29 69.4 °F 68.9 °F 30.0 in Calm     98% 0.000 in
05:34 69.4 °F 68.9 °F 30.0 in Calm     98% 0.000 in
05:39 69.4 °F 68.9 °F 30.0 in Calm     98% 0.000 in
05:44 69.4 °F 68.9 °F 30.0 in Calm     98% 0.000 in
05:49 69.4 °F 68.9 °F 30.0 in Calm     98% 0.000 in
05:54 69.4 °F 68.9 °F 30.0 in Calm     98% 0.000 in
05:59 69.4 °F 68.9 °F 30.0 in Calm     98% 0.000 in
06:04 69.4 °F 68.9 °F 30.0 in Calm   1 mph 98% 0.000 in
06:09 69.4 °F 68.9 °F 30.0 in Calm   1 mph 98% 0.000 in
06:14 69.4 °F 68.9 °F 30.0 in Calm     98% 0.000 in
06:19 69.3 °F 68.7 °F 30.0 in Calm     98% 0.000 in
06:24 69.1 °F 68.5 °F 30.0 in Calm     98% 0.000 in
06:29 69.1 °F 68.5 °F 30.0 in Calm     98% 0.000 in
06:34 68.9 °F 68.4 °F 30.0 in Calm     98% 0.000 in
06:39 68.7 °F 68.2 °F 30.0 in Calm     98% 0.000 in
06:44 68.7 °F 68.2 °F 30.0 in Calm     98% 0.000 in
06:49 68.7 °F 68.2 °F 30.0 in Calm     98% 0.000 in
06:54 68.7 °F 68.2 °F 30.0 in Calm     98% 0.000 in
06:59 68.7 °F 68.2 °F 30.0 in Calm     98% 0.000 in
07:04 68.7 °F 68.2 °F 30.0 in Calm     98% 0.000 in
07:09 68.7 °F 68.2 °F 30.0 in Calm     98% 0.000 in
07:14 68.7 °F 68.2 °F 30.0 in Calm     98% 0.000 in
07:19 68.9 °F 68.4 °F 30.0 in Calm     98% 0.000 in
07:24 68.9 °F 68.4 °F 30.0 in Calm     98% 0.000 in
07:29 69.1 °F 68.5 °F 30.0 in Calm     98% 0.000 in
07:34 69.1 °F 68.5 °F 30.0 in Calm     98% 0.000 in
07:39 69.1 °F 68.5 °F 30.0 in Calm     98% 0.000 in
07:44 69.1 °F 68.5 °F 30.0 in Calm     98% 0.000 in
07:49 69.1 °F 68.5 °F 30.0 in Calm     98% 0.000 in
07:54 69.1 °F 68.5 °F 30.0 in Calm     98% 0.000 in
07:59 69.1 °F 68.5 °F 30.0 in Calm     98% 0.000 in
08:02 69.3 °F 68.7 °F 30.0 in Calm     98% 0.000 in
East Ellijay Weather
Compliments of Weather Underground - 2 mb